Time;durP1;ratioP1;P1;durP2;ratioP2;P2;SDS_P1;SDS_P2;PMS_P1;PMS_P2;Temp;Humidity;BMP_temperature;BMP_pressure;BME280_temperature;BME280_humidity;BME280_pressure;Samples;Min_cycle;Max_cycle;Signal;HPM_P1;HPM_P2
2023/04/20 00:00:33;;;;;;;4.63;2.20;;;9.40;97.20;;;;;;10069399;28;20029;-65
2023/04/20 00:05:23;;;;;;;4.05;2.03;;;9.30;97.30;;;;;;10060652;28;20101;-67
2023/04/20 00:10:14;;;;;;;3.42;1.75;;;9.30;97.20;;;;;;10054525;28;20037;-66
2023/04/20 00:15:06;;;;;;;4.05;1.65;;;9.30;97.20;;;;;;10056945;28;20549;-66
2023/04/20 00:19:56;;;;;;;2.30;1.65;;;9.10;97.20;;;;;;10056984;28;20036;-65
2023/04/20 00:24:48;;;;;;;4.28;2.03;;;9.00;97.30;;;;;;10056853;28;20059;-65
2023/04/20 00:29:38;;;;;;;1.70;1.42;;;9.00;97.30;;;;;;10057540;28;20025;-66
2023/04/20 00:34:29;;;;;;;3.03;1.50;;;8.90;97.40;;;;;;10072947;28;20053;-65
2023/04/20 00:39:20;;;;;;;3.00;1.63;;;8.70;97.50;;;;;;10064538;28;20032;-64
2023/04/20 00:44:12;;;;;;;2.08;1.60;;;8.70;97.50;;;;;;10034716;28;20029;-65
2023/04/20 00:49:03;;;;;;;3.45;1.40;;;8.80;97.40;;;;;;10054201;28;20030;-66
2023/04/20 00:53:55;;;;;;;3.55;1.83;;;8.70;97.50;;;;;;10068382;28;20406;-65
2023/04/20 00:58:46;;;;;;;2.40;1.70;;;8.60;97.50;;;;;;10048551;28;20046;-64
2023/04/20 01:03:37;;;;;;;2.20;1.67;;;8.50;97.60;;;;;;10060930;28;20075;-63
2023/04/20 01:08:28;;;;;;;3.08;1.90;;;8.50;97.70;;;;;;10060423;28;20132;-66
2023/04/20 01:13:19;;;;;;;2.92;1.58;;;8.40;97.60;;;;;;10069108;28;20119;-65
2023/04/20 01:18:10;;;;;;;2.65;1.60;;;8.30;97.70;;;;;;10057871;28;20045;-64
2023/04/20 01:23:01;;;;;;;2.80;1.73;;;8.30;97.80;;;;;;10047454;28;20057;-69
2023/04/20 01:27:51;;;;;;;4.35;2.20;;;8.30;97.80;;;;;;10045036;28;20380;-66
2023/04/20 01:32:43;;;;;;;2.38;1.85;;;8.10;97.90;;;;;;10059039;28;20053;-65
2023/04/20 01:37:34;;;;;;;2.80;2.00;;;8.10;98.00;;;;;;10075716;28;20501;-65
2023/04/20 01:42:24;;;;;;;3.05;1.70;;;7.90;98.10;;;;;;10059858;28;20101;-66
2023/04/20 01:47:15;;;;;;;4.38;1.85;;;7.90;98.20;;;;;;10054345;28;20521;-65
2023/04/20 01:52:07;;;;;;;3.85;1.60;;;8.00;98.10;;;;;;10060673;28;20637;-66
2023/04/20 01:56:58;;;;;;;3.17;1.70;;;7.80;98.20;;;;;;10069362;28;20150;-65
2023/04/20 02:01:49;;;;;;;3.38;1.70;;;7.80;98.30;;;;;;10078414;28;20116;-66
2023/04/20 02:06:40;;;;;;;2.00;1.20;;;7.70;98.30;;;;;;10066253;28;20136;-65
2023/04/20 02:11:30;;;;;;;3.60;1.55;;;7.70;98.30;;;;;;10060153;28;20507;-65
2023/04/20 02:16:22;;;;;;;2.38;1.70;;;7.60;98.30;;;;;;10061309;28;20117;-67
2023/04/20 02:21:13;;;;;;;1.88;1.40;;;7.70;98.40;;;;;;10054036;28;20068;-68
2023/04/20 02:26:04;;;;;;;2.97;2.05;;;7.70;98.30;;;;;;10062552;28;20060;-66
2023/04/20 02:30:55;;;;;;;3.10;1.80;;;7.70;98.30;;;;;;10067696;28;20479;-66
2023/04/20 02:35:46;;;;;;;3.63;2.30;;;7.60;98.30;;;;;;10061586;28;20123;-65
2023/04/20 02:40:36;;;;;;;2.35;1.70;;;7.60;98.40;;;;;;10045803;28;20368;-67
2023/04/20 02:45:27;;;;;;;3.25;1.75;;;7.50;98.40;;;;;;10061014;28;20021;-68
2023/04/20 02:50:18;;;;;;;4.45;2.03;;;7.50;98.40;;;;;;10042331;28;20038;-70
2023/04/20 02:55:09;;;;;;;4.15;1.73;;;7.50;98.40;;;;;;10060597;28;20037;-65
2023/04/20 03:00:00;;;;;;;5.05;2.10;;;7.40;98.40;;;;;;10078170;28;20439;-68
2023/04/20 03:04:50;;;;;;;2.38;1.63;;;7.40;98.40;;;;;;10070323;28;20043;-63
2023/04/20 03:09:41;;;;;;;4.55;2.03;;;7.30;98.50;;;;;;10041096;28;20393;-67
2023/04/20 03:14:32;;;;;;;3.42;1.88;;;7.30;98.50;;;;;;10053340;28;20044;-63
2023/04/20 03:19:23;;;;;;;1.90;1.80;;;7.20;98.60;;;;;;10055718;28;20028;-67
2023/04/20 03:24:15;;;;;;;3.55;1.77;;;7.20;98.70;;;;;;10058495;28;20037;-65
2023/04/20 03:29:05;;;;;;;5.38;1.83;;;7.20;98.70;;;;;;10054336;28;20034;-66
2023/04/20 03:33:56;;;;;;;5.10;2.08;;;7.10;98.70;;;;;;10073724;28;20097;-65
2023/04/20 03:38:46;;;;;;;2.65;1.40;;;7.10;98.70;;;;;;10073965;28;20112;-65
2023/04/20 03:43:37;;;;;;;3.55;2.00;;;7.10;98.80;;;;;;10058492;28;20037;-64
2023/04/20 03:48:28;;;;;;;3.35;1.33;;;7.00;98.80;;;;;;10067637;28;20036;-64
2023/04/20 03:53:18;;;;;;;2.95;1.80;;;7.00;98.80;;;;;;10060035;28;20044;-67
2023/04/20 03:58:09;;;;;;;3.58;1.88;;;6.90;98.90;;;;;;10054455;28;20032;-67
2023/04/20 04:03:00;;;;;;;4.55;2.20;;;6.90;99.00;;;;;;10058792;28;20118;-65
2023/04/20 04:07:51;;;;;;;4.25;2.33;;;6.90;99.00;;;;;;10057442;28;20072;-65
2023/04/20 04:12:41;;;;;;;2.83;1.75;;;6.80;99.10;;;;;;10060707;28;20502;-68
2023/04/20 04:17:32;;;;;;;3.65;2.35;;;6.80;99.20;;;;;;10053913;28;20533;-68
2023/04/20 04:22:22;;;;;;;5.22;2.25;;;6.80;99.10;;;;;;10059650;28;20355;-69
2023/04/20 04:27:14;;;;;;;4.50;2.28;;;6.90;99.10;;;;;;10062127;28;20494;-68
2023/04/20 04:32:05;;;;;;;6.10;2.08;;;6.80;99.10;;;;;;10064455;28;20057;-68
2023/04/20 04:36:56;;;;;;;3.28;1.80;;;6.80;99.20;;;;;;10039904;28;20041;-69
2023/04/20 04:41:46;;;;;;;3.30;1.80;;;6.70;99.30;;;;;;10056708;28;20117;-66
2023/04/20 04:46:37;;;;;;;6.00;1.90;;;6.70;99.40;;;;;;10053769;28;20030;-68
2023/04/20 04:51:27;;;;;;;2.45;1.70;;;6.70;99.40;;;;;;10056877;28;20228;-65
2023/04/20 04:56:19;;;;;;;3.97;2.00;;;6.70;99.40;;;;;;10061176;28;20040;-64
2023/04/20 05:01:10;;;;;;;3.35;1.90;;;6.70;99.70;;;;;;10058253;28;20056;-66
2023/04/20 05:06:01;;;;;;;4.13;2.38;;;6.70;99.50;;;;;;10046974;28;20087;-67
2023/04/20 05:10:51;;;;;;;4.68;1.95;;;6.70;99.40;;;;;;10053396;28;20435;-64
2023/04/20 05:15:42;;;;;;;3.53;2.10;;;6.70;99.40;;;;;;10056286;28;20037;-63
2023/04/20 05:20:33;;;;;;;3.75;2.17;;;6.70;99.40;;;;;;10043289;28;20033;-64
2023/04/20 05:25:24;;;;;;;3.85;2.00;;;6.60;99.40;;;;;;10057228;28;20026;-65
2023/04/20 05:30:15;;;;;;;4.65;2.00;;;6.70;99.40;;;;;;10047341;28;20156;-64
2023/04/20 05:35:06;;;;;;;2.75;1.95;;;6.80;99.40;;;;;;10065989;28;20130;-64
2023/04/20 05:39:56;;;;;;;3.00;2.00;;;7.00;99.20;;;;;;10065570;28;20418;-67
2023/04/20 05:44:47;;;;;;;3.08;1.67;;;7.00;99.10;;;;;;10067446;28;20036;-64
2023/04/20 05:49:38;;;;;;;5.30;2.10;;;7.00;99.30;;;;;;10058365;28;20025;-64
2023/04/20 05:54:28;;;;;;;3.20;1.95;;;7.20;99.10;;;;;;10087197;28;20516;-65
2023/04/20 05:59:20;;;;;;;3.55;2.30;;;7.10;99.20;;;;;;10069596;28;20033;-62
2023/04/20 06:04:11;;;;;;;2.83;2.17;;;7.10;99.40;;;;;;10075018;28;20069;-62
2023/04/20 06:09:02;;;;;;;2.70;2.20;;;7.10;99.50;;;;;;10063528;28;20044;-63
2023/04/20 06:13:52;;;;;;;3.65;2.60;;;7.20;99.50;;;;;;10058685;28;20038;-62
2023/04/20 06:18:43;;;;;;;4.55;2.20;;;7.20;99.50;;;;;;10058950;28;20025;-63
2023/04/20 06:23:35;;;;;;;3.65;2.30;;;7.30;99.60;;;;;;10054368;28;20030;-63
2023/04/20 06:28:25;;;;;;;4.63;3.40;;;7.40;99.50;;;;;;10071075;28;20116;-63
2023/04/20 06:33:16;;;;;;;7.35;3.33;;;7.50;99.50;;;;;;10074269;28;20481;-63
2023/04/20 06:38:06;;;;;;;5.53;2.53;;;7.60;99.60;;;;;;10057700;28;20047;-65
2023/04/20 06:42:57;;;;;;;6.72;2.35;;;7.70;99.60;;;;;;10056784;28;20047;-61
2023/04/20 06:47:48;;;;;;;3.75;2.08;;;7.60;99.70;;;;;;10056352;28;20105;-61
2023/04/20 06:52:39;;;;;;;4.68;2.40;;;7.70;99.80;;;;;;10072691;28;20332;-63
2023/04/20 06:57:30;;;;;;;5.10;2.97;;;7.90;99.80;;;;;;10056649;28;20040;-64
2023/04/20 07:02:21;;;;;;;3.92;2.25;;;8.00;99.70;;;;;;10072685;28;20044;-65
2023/04/20 07:07:12;;;;;;;5.35;2.78;;;8.20;99.70;;;;;;10075842;28;20045;-65
2023/04/20 07:12:02;;;;;;;5.80;3.03;;;8.30;99.60;;;;;;10076156;28;20029;-64
2023/04/20 07:16:53;;;;;;;4.68;2.67;;;8.40;99.60;;;;;;10072584;28;20079;-66
2023/04/20 07:21:44;;;;;;;5.25;2.30;;;8.60;99.60;;;;;;10043371;28;20160;-63
2023/04/20 07:26:35;;;;;;;5.43;3.03;;;8.50;99.70;;;;;;10038826;28;20166;-67
2023/04/20 07:31:26;;;;;;;4.00;2.70;;;8.60;99.70;;;;;;10055849;28;20029;-66
2023/04/20 07:36:16;;;;;;;11.45;5.50;;;8.80;99.60;;;;;;10059661;28;20421;-66
2023/04/20 07:41:09;;;;;;;5.72;2.80;;;8.90;99.60;;;;;;10065410;28;20032;-69
2023/04/20 07:46:00;;;;;;;5.00;3.03;;;9.00;99.60;;;;;;10045648;28;20060;-68
2023/04/20 07:50:50;;;;;;;7.15;3.60;;;9.20;99.60;;;;;;10051040;28;20033;-67
2023/04/20 07:55:41;;;;;;;7.25;3.55;;;9.30;99.60;;;;;;10031133;28;20164;-67
2023/04/20 08:00:32;;;;;;;4.57;3.15;;;9.60;99.40;;;;;;10061570;28;20203;-68
2023/04/20 08:05:23;;;;;;;4.60;2.60;;;9.60;99.30;;;;;;10058538;28;20037;-67
2023/04/20 08:10:14;;;;;;;4.88;2.75;;;9.60;99.40;;;;;;10057004;28;20128;-67
2023/04/20 08:15:05;;;;;;;5.13;2.72;;;9.70;99.40;;;;;;10062470;28;20127;-68
2023/04/20 08:19:56;;;;;;;4.80;3.22;;;9.80;99.40;;;;;;10062121;28;20048;-68
2023/04/20 08:24:46;;;;;;;4.65;2.88;;;9.90;99.30;;;;;;10057000;28;20510;-68
2023/04/20 08:29:38;;;;;;;6.75;3.50;;;10.00;99.20;;;;;;10069959;28;20040;-68
2023/04/20 08:34:29;;;;;;;5.13;2.55;;;10.10;99.20;;;;;;10054709;28;20469;-64
2023/04/20 08:39:22;;;;;;;7.95;3.47;;;10.00;99.10;;;;;;10055560;28;20108;-67
2023/04/20 08:44:13;;;;;;;3.83;2.38;;;10.30;99.10;;;;;;10044399;28;20045;-65
2023/04/20 08:49:04;;;;;;;6.78;3.00;;;10.30;99.10;;;;;;10049670;28;20026;-64
2023/04/20 08:53:55;;;;;;;4.28;2.80;;;10.60;99.00;;;;;;10048106;28;20053;-64
2023/04/20 08:58:46;;;;;;;5.35;3.45;;;10.70;98.90;;;;;;10044564;28;20010;-65
2023/04/20 09:03:39;;;;;;;8.70;2.95;;;10.80;98.90;;;;;;10071986;28;20026;-66
2023/04/20 09:08:38;;;;;;;4.35;2.95;;;11.00;98.80;;;;;;10070663;28;20152;-65
2023/04/20 09:13:29;;;;;;;4.55;2.90;;;11.20;98.80;;;;;;10050423;28;20652;-67
2023/04/20 09:18:23;;;;;;;5.80;3.05;;;11.20;98.70;;;;;;10058015;28;20079;-69
2023/04/20 09:23:18;;;;;;;4.43;2.95;;;11.30;98.70;;;;;;10040323;28;20040;-62
2023/04/20 09:28:10;;;;;;;7.95;4.60;;;11.50;98.60;;;;;;10057033;28;20084;-61
2023/04/20 09:33:02;;;;;;;5.75;3.45;;;11.50;98.60;;;;;;10055899;28;20462;-63
2023/04/20 09:37:53;;;;;;;4.55;2.97;;;11.40;98.60;;;;;;10057809;28;20025;-60
2023/04/20 09:42:44;;;;;;;5.65;3.30;;;11.50;98.30;;;;;;10065934;28;20275;-65
2023/04/20 09:47:36;;;;;;;7.32;3.13;;;11.70;98.20;;;;;;10057043;28;20264;-63
2023/04/20 09:52:27;;;;;;;6.53;3.72;;;11.90;98.10;;;;;;10046863;28;20053;-62
2023/04/20 09:57:18;;;;;;;5.18;2.67;;;12.10;98.00;;;;;;10065244;28;20397;-61
2023/04/20 10:02:11;;;;;;;5.28;3.08;;;12.30;97.80;;;;;;10071021;28;20032;-63
2023/04/20 10:07:05;;;;;;;5.00;2.67;;;12.80;97.00;;;;;;10061157;28;20033;-65
2023/04/20 10:12:06;;;;;;;5.80;4.07;;;12.80;97.50;;;;;;10052418;28;20038;-63
2023/04/20 10:17:07;;;;;;;6.28;3.33;;;13.00;97.20;;;;;;10039470;28;20406;-66
2023/04/20 10:21:58;;;;;;;6.03;3.50;;;12.80;97.00;;;;;;10057079;28;20083;-66
2023/04/20 10:26:48;;;;;;;3.38;2.45;;;13.00;97.10;;;;;;10066160;28;20028;-65
2023/04/20 10:31:40;;;;;;;7.88;3.00;;;13.20;97.20;;;;;;10069494;28;20095;-63
2023/04/20 10:36:35;;;;;;;8.00;3.55;;;13.30;97.00;;;;;;10069347;28;20033;-62
2023/04/20 10:41:26;;;;;;;3.63;2.50;;;13.70;96.90;;;;;;10071584;28;20549;-62
2023/04/20 10:46:22;;;;;;;6.13;3.08;;;13.80;96.80;;;;;;10062121;28;20033;-68
2023/04/20 10:51:13;;;;;;;3.78;2.50;;;13.70;96.70;;;;;;10063341;28;20028;-63
2023/04/20 10:56:03;;;;;;;3.78;2.38;;;13.90;96.60;;;;;;10079567;28;20042;-64
2023/04/20 11:01:02;;;;;;;4.25;3.13;;;13.90;96.30;;;;;;10058594;28;20064;-66
2023/04/20 11:05:53;;;;;;;7.15;3.17;;;13.90;96.30;;;;;;10063526;28;20029;-64
2023/04/20 11:10:44;;;;;;;5.18;3.00;;;14.10;96.20;;;;;;10055311;28;20053;-65
2023/04/20 11:15:35;;;;;;;7.50;3.13;;;14.10;96.20;;;;;;10060191;28;20041;-65
2023/04/20 11:20:25;;;;;;;7.85;3.95;;;13.90;96.50;;;;;;10039889;28;20171;-65
2023/04/20 11:25:16;;;;;;;4.63;3.15;;;14.00;96.60;;;;;;10050952;28;20040;-63
2023/04/20 11:30:08;;;;;;;5.43;3.35;;;13.80;96.80;;;;;;10036904;28;20167;-66
2023/04/20 11:35:01;;;;;;;6.65;3.15;;;13.50;97.00;;;;;;10063028;28;20414;-64
2023/04/20 11:39:59;;;;;;;5.78;3.85;;;13.00;97.20;;;;;;10053850;28;20112;-64
2023/04/20 11:44:49;;;;;;;9.68;4.07;;;12.20;97.70;;;;;;10035266;28;20281;-64
2023/04/20 11:49:40;;;;;;;3.42;2.28;;;12.10;97.80;;;;;;10033483;28;20607;-66
2023/04/20 11:54:33;;;;;;;3.25;2.22;;;11.90;98.10;;;;;;10032641;28;20061;-65
2023/04/20 11:59:24;;;;;;;2.80;2.50;;;11.80;98.30;;;;;;10043765;28;20056;-64
2023/04/20 12:04:15;;;;;;;3.50;2.25;;;11.70;98.90;;;;;;10053456;28;20037;-64
2023/04/20 12:09:06;;;;;;;2.58;1.90;;;11.80;98.80;;;;;;10041061;28;20041;-65
2023/04/20 12:13:56;;;;;;;3.60;1.95;;;12.00;98.80;;;;;;10049559;28;20040;-61
2023/04/20 12:18:47;;;;;;;3.33;2.63;;;12.60;98.60;;;;;;10060555;28;20025;-64
2023/04/20 12:23:38;;;;;;;2.72;2.10;;;13.30;98.60;;;;;;10053430;28;20037;-63
2023/04/20 12:28:30;;;;;;;2.63;1.77;;;14.00;98.40;;;;;;10052473;28;20025;-63
2023/04/20 12:33:20;;;;;;;2.58;2.28;;;14.60;98.40;;;;;;10057218;28;20052;-62
2023/04/20 12:38:11;;;;;;;2.47;2.00;;;15.30;98.00;;;;;;10066146;28;20036;-67
2023/04/20 12:43:02;;;;;;;2.92;2.00;;;16.40;98.00;;;;;;10049616;28;20376;-65
2023/04/20 12:47:52;;;;;;;4.53;1.77;;;16.40;97.60;;;;;;10055801;28;20017;-66
2023/04/20 12:52:43;;;;;;;3.50;2.08;;;16.30;97.60;;;;;;10060062;28;20049;-66
2023/04/20 12:57:34;;;;;;;3.03;2.22;;;16.40;97.30;;;;;;10042558;28;20030;-66
2023/04/20 13:02:25;;;;;;;2.97;2.63;;;15.70;96.90;;;;;;10063231;28;20029;-66
2023/04/20 13:07:15;;;;;;;2.63;2.40;;;15.20;97.00;;;;;;10051110;28;20411;-67
2023/04/20 13:12:06;;;;;;;3.92;2.88;;;14.70;96.50;;;;;;10058742;28;20030;-66
2023/04/20 13:17:00;;;;;;;3.28;2.55;;;15.90;96.20;;;;;;10062073;28;20036;-66
2023/04/20 13:21:50;;;;;;;2.78;2.55;;;15.90;96.30;;;;;;10055373;28;20479;-67
2023/04/20 13:26:41;;;;;;;4.22;2.40;;;19.10;95.30;;;;;;10047813;28;20037;-67
2023/04/20 13:31:33;;;;;;;3.50;1.77;;;21.00;93.90;;;;;;10054311;28;20028;-65
2023/04/20 13:36:23;;;;;;;4.38;2.90;;;21.20;94.00;;;;;;10048447;28;20095;-66
2023/04/20 13:41:15;;;;;;;4.30;2.60;;;22.20;93.40;;;;;;10064014;28;20083;-63
2023/04/20 13:46:05;;;;;;;1.83;1.50;;;21.40;93.20;;;;;;10054926;28;20066;-67
2023/04/20 13:50:56;;;;;;;2.80;1.75;;;19.70;93.40;;;;;;10061140;28;20155;-67
2023/04/20 13:55:47;;;;;;;5.70;3.60;;;21.80;91.90;;;;;;10077471;28;20076;-68
2023/04/20 14:00:38;;;;;;;3.20;2.05;;;20.00;92.00;;;;;;10060224;28;20104;-68
2023/04/20 14:05:28;;;;;;;3.83;2.13;;;19.40;91.90;;;;;;10068856;28;20545;-68
2023/04/20 14:10:19;;;;;;;3.03;2.08;;;18.70;91.80;;;;;;10047749;28;20056;-70
2023/04/20 14:15:10;;;;;;;3.88;1.80;;;17.30;92.00;;;;;;10059924;28;20179;-71
2023/04/20 14:20:02;;;;;;;2.63;1.63;;;16.60;92.00;;;;;;10064726;28;20029;-69
2023/04/20 14:24:53;;;;;;;2.17;1.95;;;17.10;91.40;;;;;;10054272;28;20075;-67
2023/04/20 14:29:44;;;;;;;2.22;1.65;;;17.00;91.60;;;;;;10059049;28;20025;-67
2023/04/20 14:34:34;;;;;;;1.88;1.60;;;16.40;91.30;;;;;;10060118;28;20563;-66
2023/04/20 14:39:25;;;;;;;3.30;2.13;;;15.90;91.40;;;;;;10072322;28;20033;-67
2023/04/20 14:44:16;;;;;;;2.00;1.60;;;15.30;91.40;;;;;;10067740;28;20049;-68
2023/04/20 14:49:06;;;;;;;2.08;1.63;;;15.50;91.40;;;;;;10061041;28;20107;-66
2023/04/20 14:53:57;;;;;;;2.45;1.67;;;17.00;90.90;;;;;;10071046;28;20051;-67
2023/04/20 14:58:48;;;;;;;2.60;2.03;;;16.70;91.00;;;;;;10067284;28;20029;-66
2023/04/20 15:03:39;;;;;;;2.38;1.98;;;15.60;91.40;;;;;;10063694;28;20384;-71
2023/04/20 15:08:29;;;;;;;2.80;1.70;;;15.10;91.50;;;;;;10056432;28;20476;-65
2023/04/20 15:13:20;;;;;;;3.08;1.50;;;14.70;91.60;;;;;;10058784;28;20052;-65
2023/04/20 15:18:10;;;;;;;2.38;1.70;;;14.40;91.50;;;;;;10067477;28;20029;-68
2023/04/20 15:23:01;;;;;;;1.90;1.63;;;14.40;91.60;;;;;;10061900;28;20085;-69
2023/04/20 15:27:52;;;;;;;2.00;1.58;;;14.20;91.60;;;;;;10054558;28;20422;-67
2023/04/20 15:32:42;;;;;;;1.88;1.20;;;14.40;91.70;;;;;;10057550;28;20037;-67
2023/04/20 15:37:33;;;;;;;2.13;1.05;;;14.60;91.70;;;;;;10058688;28;20343;-68
2023/04/20 15:42:24;;;;;;;1.90;1.40;;;14.40;91.80;;;;;;10059409;28;20021;-66
2023/04/20 15:47:15;;;;;;;1.70;1.10;;;14.30;92.00;;;;;;10063377;28;20465;-65
2023/04/20 15:52:07;;;;;;;3.05;1.25;;;14.00;92.20;;;;;;10052707;28;20501;-64
2023/04/20 15:56:57;;;;;;;1.92;1.05;;;13.80;92.40;;;;;;10056285;28;20481;-65
2023/04/20 16:01:48;;;;;;;1.92;1.27;;;13.60;92.60;;;;;;10051189;28;20029;-66
2023/04/20 16:06:40;;;;;;;0.95;0.90;;;13.60;92.60;;;;;;10060255;28;20037;-68
2023/04/20 16:11:32;;;;;;;1.83;1.23;;;13.70;92.80;;;;;;10060191;28;20033;-66
2023/04/20 16:16:22;;;;;;;1.48;1.13;;;13.80;92.90;;;;;;10056117;28;20034;-65
2023/04/20 16:21:13;;;;;;;2.83;1.73;;;13.80;93.20;;;;;;10057937;28;20033;-66
2023/04/20 16:26:04;;;;;;;2.13;1.27;;;14.10;93.40;;;;;;10055575;28;20035;-66
2023/04/20 16:30:55;;;;;;;1.83;1.20;;;14.30;93.40;;;;;;10035329;28;20164;-66
2023/04/20 16:35:45;;;;;;;2.55;1.67;;;14.30;93.60;;;;;;10066781;28;20024;-66
2023/04/20 16:40:36;;;;;;;1.50;1.08;;;14.40;93.90;;;;;;10055474;28;20029;-66
2023/04/20 16:45:27;;;;;;;3.10;1.45;;;14.40;94.00;;;;;;10032985;28;20037;-66
2023/04/20 16:50:19;;;;;;;1.55;1.15;;;13.90;94.30;;;;;;10047584;28;20133;-66
2023/04/20 16:55:09;;;;;;;1.83;1.20;;;13.50;94.70;;;;;;10062052;28;20087;-65
2023/04/20 17:00:00;;;;;;;2.88;1.88;;;13.00;95.30;;;;;;10047255;28;20432;-65
2023/04/20 17:04:51;;;;;;;3.55;2.45;;;12.80;95.60;;;;;;10066061;28;20029;-65
2023/04/20 17:09:41;;;;;;;3.10;1.95;;;12.80;95.80;;;;;;10060349;28;20277;-67
2023/04/20 17:14:33;;;;;;;2.80;1.92;;;12.70;95.80;;;;;;10063373;28;20046;-65
2023/04/20 17:19:24;;;;;;;2.50;1.80;;;12.70;95.90;;;;;;10060493;28;20082;-65
2023/04/20 17:24:14;;;;;;;5.60;2.00;;;12.80;95.80;;;;;;10069134;28;20116;-66
2023/04/20 17:29:05;;;;;;;3.22;1.85;;;12.70;95.90;;;;;;10059580;28;20036;-65
2023/04/20 17:33:56;;;;;;;4.78;2.10;;;12.60;95.90;;;;;;10067684;28;20041;-66
2023/04/20 17:38:46;;;;;;;2.45;1.63;;;12.50;96.10;;;;;;10067491;28;20063;-65
2023/04/20 17:43:39;;;;;;;2.85;1.80;;;12.60;96.00;;;;;;10059331;28;20030;-66
2023/04/20 17:48:29;;;;;;;3.90;2.13;;;12.60;96.00;;;;;;10061655;28;20072;-65
2023/04/20 17:53:20;;;;;;;3.22;1.65;;;12.60;96.10;;;;;;10055921;28;20080;-65
2023/04/20 17:58:11;;;;;;;2.30;1.50;;;12.30;96.00;;;;;;10062411;28;20553;-66
2023/04/20 18:03:02;;;;;;;5.45;2.58;;;12.30;96.20;;;;;;10072901;28;20166;-66
2023/04/20 18:07:52;;;;;;;5.13;3.25;;;12.40;96.20;;;;;;10067517;28;20041;-67
2023/04/20 18:12:43;;;;;;;6.78;3.10;;;12.30;96.20;;;;;;10070428;28;20079;-66
2023/04/20 18:17:34;;;;;;;3.90;3.03;;;12.40;96.20;;;;;;10069602;28;20464;-65
2023/04/20 18:22:25;;;;;;;2.90;2.05;;;12.20;96.30;;;;;;10051378;28;20029;-66
2023/04/20 18:27:16;;;;;;;4.90;2.28;;;12.00;96.60;;;;;;10056877;28;20033;-66
2023/04/20 18:32:06;;;;;;;9.38;4.45;;;12.00;96.50;;;;;;10055548;28;20025;-66
2023/04/20 18:36:57;;;;;;;4.55;3.08;;;11.80;96.70;;;;;;10060660;28;20049;-67
2023/04/20 18:41:48;;;;;;;5.68;3.10;;;11.90;96.70;;;;;;10041977;28;20175;-67
2023/04/20 18:46:40;;;;;;;4.57;2.83;;;11.80;96.70;;;;;;10043993;28;20056;-67
2023/04/20 18:51:31;;;;;;;3.35;2.60;;;11.60;96.80;;;;;;10064681;28;20031;-66
2023/04/20 18:56:22;;;;;;;4.50;2.53;;;11.50;97.00;;;;;;10076820;28;20288;-66
2023/04/20 19:01:13;;;;;;;4.55;3.03;;;11.40;97.00;;;;;;10069584;28;20307;-66
2023/04/20 19:06:04;;;;;;;6.07;3.47;;;11.40;97.00;;;;;;10062360;28;20102;-66
2023/04/20 19:10:56;;;;;;;4.65;3.15;;;11.20;97.20;;;;;;10053923;28;20502;-66
2023/04/20 19:15:46;;;;;;;4.32;3.30;;;11.00;97.50;;;;;;10053704;28;20025;-66
2023/04/20 19:20:37;;;;;;;6.95;3.40;;;11.00;97.70;;;;;;10053640;28;20044;-67
2023/04/20 19:25:28;;;;;;;6.68;4.05;;;10.80;97.90;;;;;;10053594;28;20379;-64
2023/04/20 19:30:19;;;;;;;6.60;3.47;;;10.70;98.00;;;;;;10064820;28;20107;-65
2023/04/20 19:35:09;;;;;;;6.40;3.72;;;10.80;97.90;;;;;;10064721;28;20099;-67
2023/04/20 19:40:00;;;;;;;6.93;3.63;;;10.70;98.00;;;;;;10068111;28;20111;-66
2023/04/20 19:44:52;;;;;;;6.28;3.80;;;10.70;98.00;;;;;;10060898;28;20486;-69
2023/04/20 19:49:43;;;;;;;5.57;3.88;;;10.60;98.30;;;;;;10041317;28;20057;-69
2023/04/20 19:54:34;;;;;;;6.68;4.38;;;10.50;98.60;;;;;;10059654;28;20534;-66
2023/04/20 19:59:27;;;;;;;6.72;4.00;;;10.50;98.50;;;;;;10054069;28;20029;-63
2023/04/20 20:04:19;;;;;;;5.70;4.50;;;10.60;98.40;;;;;;10050330;28;20362;-68
2023/04/20 20:09:09;;;;;;;7.95;4.60;;;10.60;98.50;;;;;;10055800;28;20052;-67
2023/04/20 20:14:00;;;;;;;6.20;4.07;;;10.40;98.80;;;;;;10066153;28;20045;-66
2023/04/20 20:18:51;;;;;;;6.70;4.10;;;10.30;99.10;;;;;;10056888;28;20049;-69
2023/04/20 20:23:41;;;;;;;9.52;4.55;;;10.20;99.20;;;;;;10043534;28;20035;-69
2023/04/20 20:28:32;;;;;;;7.10;4.82;;;10.10;99.40;;;;;;10047683;28;20027;-67
2023/04/20 20:33:23;;;;;;;7.00;5.15;;;10.30;99.30;;;;;;10052415;28;20136;-67
2023/04/20 20:38:13;;;;;;;8.38;4.68;;;10.20;99.20;;;;;;10060710;28;20021;-68
2023/04/20 20:43:04;;;;;;;9.00;4.40;;;10.20;99.20;;;;;;10049566;28;20467;-68
2023/04/20 20:47:55;;;;;;;6.95;4.60;;;10.10;99.40;;;;;;10028255;28;20124;-66
2023/04/20 20:52:46;;;;;;;7.22;3.85;;;10.10;99.40;;;;;;10062185;28;20132;-68
2023/04/20 20:57:36;;;;;;;7.22;4.68;;;10.00;99.30;;;;;;10058184;28;20468;-67
2023/04/20 21:02:27;;;;;;;9.50;5.05;;;10.10;99.40;;;;;;10066283;28;20033;-70
2023/04/20 21:07:18;;;;;;;7.68;4.65;;;10.10;99.50;;;;;;10055207;28;20153;-67
2023/04/20 21:12:09;;;;;;;7.85;4.70;;;10.00;99.60;;;;;;10053375;28;20029;-67
2023/04/20 21:16:59;;;;;;;8.88;5.78;;;9.80;99.90;;;;;;10058207;28;20037;-69
2023/04/20 21:21:50;;;;;;;7.68;4.53;;;9.90;99.90;;;;;;10056483;28;20461;-67
2023/04/20 21:26:40;;;;;;;10.52;5.05;;;9.90;99.90;;;;;;10057624;28;20306;-69
2023/04/20 21:31:32;;;;;;;7.43;4.50;;;9.70;99.90;;;;;;10047858;28;20107;-68
2023/04/20 21:36:22;;;;;;;9.48;5.22;;;9.60;99.90;;;;;;10064441;28;20044;-68
2023/04/20 21:41:14;;;;;;;7.13;5.30;;;9.60;99.90;;;;;;10050246;28;20044;-68
2023/04/20 21:46:05;;;;;;;10.13;5.32;;;9.60;99.90;;;;;;10049868;28;20389;-67
2023/04/20 21:50:56;;;;;;;8.38;5.28;;;9.50;99.90;;;;;;10051853;28;20045;-68
2023/04/20 21:55:46;;;;;;;6.97;4.95;;;9.60;99.90;;;;;;10065425;28;20053;-67
2023/04/20 22:00:37;;;;;;;7.03;4.65;;;9.50;99.90;;;;;;10055981;28;20483;-68
2023/04/20 22:05:28;;;;;;;8.65;5.00;;;9.50;99.90;;;;;;10052253;28;20293;-68
2023/04/20 22:10:19;;;;;;;7.90;5.15;;;9.30;99.90;;;;;;10072863;28;20056;-66
2023/04/20 22:15:13;;;;;;;12.25;4.80;;;9.30;99.90;;;;;;10058997;28;20094;-68
2023/04/20 22:20:09;;;;;;;9.07;4.47;;;9.30;99.90;;;;;;10054838;28;20120;-67
2023/04/20 22:25:00;;;;;;;10.13;5.28;;;9.20;99.90;;;;;;10053085;28;20407;-69
2023/04/20 22:29:50;;;;;;;7.68;5.18;;;9.20;99.90;;;;;;10061444;28;20037;-67
2023/04/20 22:34:41;;;;;;;7.88;4.55;;;9.20;99.90;;;;;;10053478;28;20046;-69
2023/04/20 22:39:32;;;;;;;11.25;6.15;;;9.00;99.90;;;;;;10071845;28;20040;-68
2023/04/20 22:44:22;;;;;;;11.68;6.00;;;8.90;99.90;;;;;;10052265;28;20132;-67
2023/04/20 22:49:14;;;;;;;10.93;6.50;;;9.00;99.90;;;;;;10039910;28;20092;-66
2023/04/20 22:54:05;;;;;;;7.63;5.93;;;8.90;99.90;;;;;;10058758;28;20432;-66
2023/04/20 22:58:55;;;;;;;8.07;5.97;;;8.90;99.90;;;;;;10045461;28;20216;-67
2023/04/20 23:03:46;;;;;;;11.27;6.70;;;8.80;99.90;;;;;;10061340;28;20057;-66
2023/04/20 23:08:38;;;;;;;9.52;5.78;;;8.70;99.90;;;;;;10055552;28;20047;-68
2023/04/20 23:13:30;;;;;;;10.27;6.55;;;8.70;99.90;;;;;;10068195;28;20147;-67
2023/04/20 23:18:20;;;;;;;11.50;6.72;;;8.70;99.90;;;;;;10056911;28;20022;-69
2023/04/20 23:23:11;;;;;;;13.10;6.05;;;8.70;99.90;;;;;;10054511;28;20125;-68
2023/04/20 23:28:02;;;;;;;10.55;6.50;;;8.60;99.90;;;;;;10038975;28;20026;-65
2023/04/20 23:32:52;;;;;;;10.10;6.03;;;8.60;99.90;;;;;;10048207;28;20044;-66
2023/04/20 23:37:43;;;;;;;11.40;5.95;;;8.60;99.90;;;;;;10072569;22;20032;-60
2023/04/20 23:42:36;;;;;;;10.30;5.90;;;8.60;99.90;;;;;;10085003;28;20029;-58
2023/04/20 23:47:27;;;;;;;10.35;6.47;;;8.60;99.90;;;;;;10094239;28;20036;-58
2023/04/20 23:52:18;;;;;;;14.43;7.57;;;8.60;99.90;;;;;;10097884;28;20047;-57
2023/04/20 23:57:08;;;;;;;12.20;6.05;;;8.70;99.90;;;;;;10104145;28;20051;-62
